sensor_id;sensor_type;location;lat;lon;timestamp;pressure;altitude;pressure_sealevel;temperature;humidity
30730;BME280;17476;48.458;7.928;2023-10-08T00:01:53;100938.81;;;13.90;76.41
30730;BME280;17476;48.458;7.928;2023-10-08T00:04:21;100932.91;;;14.05;75.28
30730;BME280;17476;48.458;7.928;2023-10-08T00:06:47;100926.84;;;14.04;74.83
30730;BME280;17476;48.458;7.928;2023-10-08T00:09:14;100942.09;;;14.01;75.17
30730;BME280;17476;48.458;7.928;2023-10-08T00:11:41;100946.56;;;14.08;73.98
30730;BME280;17476;48.458;7.928;2023-10-08T00:14:07;100948.53;;;14.06;74.29
30730;BME280;17476;48.458;7.928;2023-10-08T00:16:36;100941.81;;;14.04;74.01
30730;BME280;17476;48.458;7.928;2023-10-08T00:19:08;100934.72;;;13.96;74.45
30730;BME280;17476;48.458;7.928;2023-10-08T00:21:35;100934.81;;;13.78;75.34
30730;BME280;17476;48.458;7.928;2023-10-08T00:24:04;100939.97;;;13.54;77.16
30730;BME280;17476;48.458;7.928;2023-10-08T00:26:33;100933.63;;;13.64;76.46
30730;BME280;17476;48.458;7.928;2023-10-08T00:29:06;100926.41;;;13.66;76.21
30730;BME280;17476;48.458;7.928;2023-10-08T00:31:32;100929.09;;;13.83;75.62
30730;BME280;17476;48.458;7.928;2023-10-08T00:34:07;100928.38;;;13.73;74.91
30730;BME280;17476;48.458;7.928;2023-10-08T00:36:38;100930.19;;;13.64;75.04
30730;BME280;17476;48.458;7.928;2023-10-08T00:39:04;100922.97;;;13.74;74.43
30730;BME280;17476;48.458;7.928;2023-10-08T00:41:35;100924.91;;;13.64;75.06
30730;BME280;17476;48.458;7.928;2023-10-08T00:44:07;100923.28;;;13.71;75.16
30730;BME280;17476;48.458;7.928;2023-10-08T00:46:33;100911.44;;;13.59;75.02
30730;BME280;17476;48.458;7.928;2023-10-08T00:49:04;100909.63;;;13.59;74.82
30730;BME280;17476;48.458;7.928;2023-10-08T00:51:56;100915.84;;;13.58;75.02
30730;BME280;17476;48.458;7.928;2023-10-08T00:54:39;100915.19;;;13.48;75.69
30730;BME280;17476;48.458;7.928;2023-10-08T00:57:21;100913.88;;;13.60;75.41
30730;BME280;17476;48.458;7.928;2023-10-08T00:59:48;100914.59;;;13.79;74.24
30730;BME280;17476;48.458;7.928;2023-10-08T01:02:23;100915.78;;;13.84;73.93
30730;BME280;17476;48.458;7.928;2023-10-08T01:04:52;100912.97;;;13.78;74.33
30730;BME280;17476;48.458;7.928;2023-10-08T01:07:20;100909.69;;;13.76;74.47
30730;BME280;17476;48.458;7.928;2023-10-08T01:09:46;100907.81;;;13.68;74.42
30730;BME280;17476;48.458;7.928;2023-10-08T01:12:26;100905.69;;;13.63;74.21
30730;BME280;17476;48.458;7.928;2023-10-08T01:15:02;100895.00;;;13.57;74.66
30730;BME280;17476;48.458;7.928;2023-10-08T01:17:50;100897.94;;;13.54;74.76
30730;BME280;17476;48.458;7.928;2023-10-08T01:20:27;100894.66;;;13.52;74.47
30730;BME280;17476;48.458;7.928;2023-10-08T01:23:05;100902.88;;;13.49;74.74
30730;BME280;17476;48.458;7.928;2023-10-08T01:25:37;100900.41;;;13.55;74.20
30730;BME280;17476;48.458;7.928;2023-10-08T01:28:04;100908.88;;;13.41;74.93
30730;BME280;17476;48.458;7.928;2023-10-08T01:30:39;100907.59;;;13.45;75.48
30730;BME280;17476;48.458;7.928;2023-10-08T01:33:09;100906.78;;;13.19;76.89
30730;BME280;17476;48.458;7.928;2023-10-08T01:35:39;100907.88;;;13.34;76.29
30730;BME280;17476;48.458;7.928;2023-10-08T01:38:06;100922.31;;;13.30;76.25
30730;BME280;17476;48.458;7.928;2023-10-08T01:40:32;100913.81;;;13.36;76.62
30730;BME280;17476;48.458;7.928;2023-10-08T01:42:58;100909.03;;;13.39;76.01
30730;BME280;17476;48.458;7.928;2023-10-08T01:45:29;100903.59;;;13.33;75.60
30730;BME280;17476;48.458;7.928;2023-10-08T01:47:56;100895.59;;;13.08;75.72
30730;BME280;17476;48.458;7.928;2023-10-08T01:50:22;100899.91;;;12.92;76.76
30730;BME280;17476;48.458;7.928;2023-10-08T01:52:51;100893.16;;;13.15;75.70
30730;BME280;17476;48.458;7.928;2023-10-08T01:55:17;100894.47;;;13.19;75.72
30730;BME280;17476;48.458;7.928;2023-10-08T01:57:46;100893.59;;;13.28;75.70
30730;BME280;17476;48.458;7.928;2023-10-08T02:00:13;100894.75;;;13.08;77.28
30730;BME280;17476;48.458;7.928;2023-10-08T02:02:47;100898.00;;;13.02;77.15
30730;BME280;17476;48.458;7.928;2023-10-08T02:05:12;100882.91;;;13.04;78.86
30730;BME280;17476;48.458;7.928;2023-10-08T02:07:45;100893.59;;;13.02;77.87
30730;BME280;17476;48.458;7.928;2023-10-08T02:10:12;100890.78;;;13.04;78.03
30730;BME280;17476;48.458;7.928;2023-10-08T02:12:40;100889.09;;;12.95;78.44
30730;BME280;17476;48.458;7.928;2023-10-08T02:15:07;100894.19;;;12.96;77.97
30730;BME280;17476;48.458;7.928;2023-10-08T02:17:34;100890.38;;;12.65;78.51
30730;BME280;17476;48.458;7.928;2023-10-08T02:20:00;100893.69;;;12.67;78.77
30730;BME280;17476;48.458;7.928;2023-10-08T02:22:30;100886.22;;;12.80;78.15
30730;BME280;17476;48.458;7.928;2023-10-08T02:24:56;100886.31;;;12.96;77.77
30730;BME280;17476;48.458;7.928;2023-10-08T02:27:27;100882.06;;;13.21;75.95
30730;BME280;17476;48.458;7.928;2023-10-08T02:29:53;100882.38;;;13.26;75.28
30730;BME280;17476;48.458;7.928;2023-10-08T02:32:20;100879.84;;;13.08;76.61
30730;BME280;17476;48.458;7.928;2023-10-08T02:34:48;100889.03;;;13.12;75.93
30730;BME280;17476;48.458;7.928;2023-10-08T02:37:16;100891.34;;;13.16;75.75
30730;BME280;17476;48.458;7.928;2023-10-08T02:39:42;100888.69;;;13.07;76.50
30730;BME280;17476;48.458;7.928;2023-10-08T02:42:08;100889.97;;;13.03;76.49
30730;BME280;17476;48.458;7.928;2023-10-08T02:44:36;100892.34;;;13.15;76.29
30730;BME280;17476;48.458;7.928;2023-10-08T02:47:09;100889.34;;;13.09;76.03
30730;BME280;17476;48.458;7.928;2023-10-08T02:49:37;100889.44;;;13.26;75.48
30730;BME280;17476;48.458;7.928;2023-10-08T02:52:07;100888.28;;;13.20;76.13
30730;BME280;17476;48.458;7.928;2023-10-08T02:54:34;100888.41;;;13.19;76.29
30730;BME280;17476;48.458;7.928;2023-10-08T02:57:02;100886.47;;;13.21;75.50
30730;BME280;17476;48.458;7.928;2023-10-08T02:59:36;100885.22;;;13.07;75.90
30730;BME280;17476;48.458;7.928;2023-10-08T03:02:10;100883.38;;;12.99;76.12
30730;BME280;17476;48.458;7.928;2023-10-08T03:04:42;100880.91;;;12.98;76.55
30730;BME280;17476;48.458;7.928;2023-10-08T03:07:14;100883.38;;;12.99;76.39
30730;BME280;17476;48.458;7.928;2023-10-08T03:09:58;100879.88;;;12.91;76.11
30730;BME280;17476;48.458;7.928;2023-10-08T03:12:42;100878.09;;;12.91;76.36
30730;BME280;17476;48.458;7.928;2023-10-08T03:15:09;100881.72;;;12.98;76.67
30730;BME280;17476;48.458;7.928;2023-10-08T03:17:54;100878.19;;;13.07;75.85
30730;BME280;17476;48.458;7.928;2023-10-08T03:20:20;100877.22;;;13.08;75.71
30730;BME280;17476;48.458;7.928;2023-10-08T03:23:12;100875.66;;;12.98;75.86
30730;BME280;17476;48.458;7.928;2023-10-08T03:25:41;100874.84;;;12.97;75.55
30730;BME280;17476;48.458;7.928;2023-10-08T03:28:11;100880.25;;;12.96;75.80
30730;BME280;17476;48.458;7.928;2023-10-08T03:30:40;100877.63;;;12.96;75.75
30730;BME280;17476;48.458;7.928;2023-10-08T03:33:17;100878.69;;;12.85;76.11
30730;BME280;17476;48.458;7.928;2023-10-08T03:35:49;100879.63;;;13.02;75.57
30730;BME280;17476;48.458;7.928;2023-10-08T03:38:19;100881.56;;;13.00;75.67
30730;BME280;17476;48.458;7.928;2023-10-08T03:40:55;100880.09;;;12.97;75.89
30730;BME280;17476;48.458;7.928;2023-10-08T03:43:29;100878.53;;;13.12;75.22
30730;BME280;17476;48.458;7.928;2023-10-08T03:46:09;100883.06;;;13.02;75.09
30730;BME280;17476;48.458;7.928;2023-10-08T03:48:42;100868.97;;;13.03;75.22
30730;BME280;17476;48.458;7.928;2023-10-08T03:51:12;100873.16;;;12.88;76.41
30730;BME280;17476;48.458;7.928;2023-10-08T03:53:39;100867.00;;;12.79;76.80
30730;BME280;17476;48.458;7.928;2023-10-08T03:56:23;100874.34;;;12.68;77.63
30730;BME280;17476;48.458;7.928;2023-10-08T03:58:50;100869.63;;;12.79;78.06
30730;BME280;17476;48.458;7.928;2023-10-08T04:01:21;100874.34;;;12.68;77.84
30730;BME280;17476;48.458;7.928;2023-10-08T04:03:47;100870.06;;;12.67;77.51
30730;BME280;17476;48.458;7.928;2023-10-08T04:06:28;100864.91;;;12.57;79.09
30730;BME280;17476;48.458;7.928;2023-10-08T04:08:57;100874.13;;;12.61;78.58
30730;BME280;17476;48.458;7.928;2023-10-08T04:11:36;100872.41;;;12.52;78.81
30730;BME280;17476;48.458;7.928;2023-10-08T04:14:07;100881.41;;;12.49;79.27
30730;BME280;17476;48.458;7.928;2023-10-08T04:16:33;100870.41;;;12.72;78.38
30730;BME280;17476;48.458;7.928;2023-10-08T04:19:04;100868.91;;;12.43;79.39
30730;BME280;17476;48.458;7.928;2023-10-08T04:21:30;100877.91;;;12.41;78.91
30730;BME280;17476;48.458;7.928;2023-10-08T04:24:00;100875.72;;;12.54;79.20
30730;BME280;17476;48.458;7.928;2023-10-08T04:26:36;100872.88;;;12.47;79.09
30730;BME280;17476;48.458;7.928;2023-10-08T04:29:06;100870.19;;;12.39;79.13
30730;BME280;17476;48.458;7.928;2023-10-08T04:31:35;100867.88;;;12.36;79.78
30730;BME280;17476;48.458;7.928;2023-10-08T04:34:09;100871.97;;;12.39;79.06
30730;BME280;17476;48.458;7.928;2023-10-08T04:36:46;100876.00;;;12.51;78.13
30730;BME280;17476;48.458;7.928;2023-10-08T04:39:16;100877.91;;;12.41;78.21
30730;BME280;17476;48.458;7.928;2023-10-08T04:41:47;100874.09;;;12.35;78.65
30730;BME280;17476;48.458;7.928;2023-10-08T04:44:14;100872.47;;;12.34;78.59
30730;BME280;17476;48.458;7.928;2023-10-08T04:46:44;100873.22;;;12.52;78.57
30730;BME280;17476;48.458;7.928;2023-10-08T04:49:14;100874.59;;;12.56;78.28
30730;BME280;17476;48.458;7.928;2023-10-08T04:52:06;100871.31;;;12.54;78.67
30730;BME280;17476;48.458;7.928;2023-10-08T04:54:42;100873.78;;;12.38;79.34
30730;BME280;17476;48.458;7.928;2023-10-08T04:57:18;100865.25;;;12.36;80.71
30730;BME280;17476;48.458;7.928;2023-10-08T04:59:44;100859.63;;;12.49;79.93
30730;BME280;17476;48.458;7.928;2023-10-08T05:02:12;100847.81;;;12.53;78.29
30730;BME280;17476;48.458;7.928;2023-10-08T05:04:38;100840.81;;;12.36;78.93
30730;BME280;17476;48.458;7.928;2023-10-08T05:07:23;100840.66;;;12.37;78.92
30730;BME280;17476;48.458;7.928;2023-10-08T05:09:49;100844.59;;;12.33;79.52
30730;BME280;17476;48.458;7.928;2023-10-08T05:12:29;100852.09;;;12.28;79.07
30730;BME280;17476;48.458;7.928;2023-10-08T05:14:58;100857.50;;;12.09;79.91
30730;BME280;17476;48.458;7.928;2023-10-08T05:17:46;100862.81;;;11.99;81.56
30730;BME280;17476;48.458;7.928;2023-10-08T05:20:19;100859.28;;;11.90;81.39
30730;BME280;17476;48.458;7.928;2023-10-08T05:23:12;100860.63;;;11.94;82.00
30730;BME280;17476;48.458;7.928;2023-10-08T05:25:52;100859.28;;;11.90;82.35
30730;BME280;17476;48.458;7.928;2023-10-08T05:28:31;100854.00;;;11.72;82.61
30730;BME280;17476;48.458;7.928;2023-10-08T05:31:08;100855.84;;;11.62;82.85
30730;BME280;17476;48.458;7.928;2023-10-08T05:33:47;100869.69;;;11.82;80.88
30730;BME280;17476;48.458;7.928;2023-10-08T05:36:41;100867.69;;;11.94;80.45
30730;BME280;17476;48.458;7.928;2023-10-08T05:39:37;100867.31;;;12.07;80.06
30730;BME280;17476;48.458;7.928;2023-10-08T05:42:07;100865.50;;;12.07;79.05
30730;BME280;17476;48.458;7.928;2023-10-08T05:44:44;100872.84;;;12.03;78.86
30730;BME280;17476;48.458;7.928;2023-10-08T05:47:32;100876.28;;;12.22;78.71
30730;BME280;17476;48.458;7.928;2023-10-08T05:49:59;100876.94;;;12.24;77.76
30730;BME280;17476;48.458;7.928;2023-10-08T05:52:47;100877.22;;;12.39;77.53
30730;BME280;17476;48.458;7.928;2023-10-08T05:55:19;100881.66;;;12.38;77.19
30730;BME280;17476;48.458;7.928;2023-10-08T05:57:59;100874.69;;;12.47;76.98
30730;BME280;17476;48.458;7.928;2023-10-08T06:00:43;100887.50;;;12.50;77.23
30730;BME280;17476;48.458;7.928;2023-10-08T06:03:28;100880.56;;;12.23;78.64
30730;BME280;17476;48.458;7.928;2023-10-08T06:06:13;100882.44;;;12.13;80.47
30730;BME280;17476;48.458;7.928;2023-10-08T06:08:42;100885.41;;;12.36;79.45
30730;BME280;17476;48.458;7.928;2023-10-08T06:11:26;100897.72;;;12.35;79.71
30730;BME280;17476;48.458;7.928;2023-10-08T06:14:22;100898.47;;;12.27;80.16
30730;BME280;17476;48.458;7.928;2023-10-08T06:17:07;100902.94;;;12.17;81.03
30730;BME280;17476;48.458;7.928;2023-10-08T06:19:51;100908.41;;;12.24;80.79
30730;BME280;17476;48.458;7.928;2023-10-08T06:22:18;100910.81;;;12.35;79.64
30730;BME280;17476;48.458;7.928;2023-10-08T06:24:44;100912.91;;;12.32;79.20
30730;BME280;17476;48.458;7.928;2023-10-08T06:27:10;100911.88;;;12.42;79.29
30730;BME280;17476;48.458;7.928;2023-10-08T06:29:42;100916.44;;;12.40;79.43
30730;BME280;17476;48.458;7.928;2023-10-08T06:32:10;100910.34;;;12.57;78.67
30730;BME280;17476;48.458;7.928;2023-10-08T06:34:37;100919.03;;;12.58;78.20
30730;BME280;17476;48.458;7.928;2023-10-08T06:37:06;100912.88;;;12.67;77.28
30730;BME280;17476;48.458;7.928;2023-10-08T06:39:33;100926.72;;;12.77;76.84
30730;BME280;17476;48.458;7.928;2023-10-08T06:42:15;100918.22;;;12.57;77.79
30730;BME280;17476;48.458;7.928;2023-10-08T06:44:42;100924.88;;;12.70;77.22
30730;BME280;17476;48.458;7.928;2023-10-08T06:47:14;100923.91;;;12.97;76.47
30730;BME280;17476;48.458;7.928;2023-10-08T06:49:44;100931.00;;;13.04;74.89
30730;BME280;17476;48.458;7.928;2023-10-08T06:52:10;100920.47;;;12.96;75.69
30730;BME280;17476;48.458;7.928;2023-10-08T06:54:38;100927.59;;;13.12;74.17
30730;BME280;17476;48.458;7.928;2023-10-08T06:57:04;100915.97;;;13.15;74.31
30730;BME280;17476;48.458;7.928;2023-10-08T06:59:29;100920.16;;;13.25;74.52
30730;BME280;17476;48.458;7.928;2023-10-08T07:01:57;100916.63;;;13.17;73.76
30730;BME280;17476;48.458;7.928;2023-10-08T07:04:24;100912.81;;;13.11;74.41
30730;BME280;17476;48.458;7.928;2023-10-08T07:06:50;100912.66;;;13.12;75.31
30730;BME280;17476;48.458;7.928;2023-10-08T07:09:16;100915.09;;;13.06;75.96
30730;BME280;17476;48.458;7.928;2023-10-08T07:11:51;100916.22;;;13.21;76.14
30730;BME280;17476;48.458;7.928;2023-10-08T07:14:22;100918.06;;;13.11;76.21
30730;BME280;17476;48.458;7.928;2023-10-08T07:16:55;100914.59;;;13.02;77.31
30730;BME280;17476;48.458;7.928;2023-10-08T07:19:25;100914.84;;;12.91;77.63
30730;BME280;17476;48.458;7.928;2023-10-08T07:22:00;100919.06;;;12.84;78.54
30730;BME280;17476;48.458;7.928;2023-10-08T07:24:29;100913.78;;;13.02;79.10
30730;BME280;17476;48.458;7.928;2023-10-08T07:26:56;100919.66;;;13.22;77.55
30730;BME280;17476;48.458;7.928;2023-10-08T07:29:22;100924.63;;;13.33;78.08
30730;BME280;17476;48.458;7.928;2023-10-08T07:31:48;100914.03;;;13.51;77.33
30730;BME280;17476;48.458;7.928;2023-10-08T07:34:18;100922.97;;;13.74;75.96
30730;BME280;17476;48.458;7.928;2023-10-08T07:36:54;100922.19;;;13.82;76.08
30730;BME280;17476;48.458;7.928;2023-10-08T07:39:21;100928.81;;;14.02;74.81
30730;BME280;17476;48.458;7.928;2023-10-08T07:41:53;100936.25;;;14.23;73.67
30730;BME280;17476;48.458;7.928;2023-10-08T07:44:21;100934.44;;;14.40;71.82
30730;BME280;17476;48.458;7.928;2023-10-08T07:46:51;100932.97;;;14.37;71.05
30730;BME280;17476;48.458;7.928;2023-10-08T07:49:20;100929.22;;;14.64;71.33
30730;BME280;17476;48.458;7.928;2023-10-08T07:51:49;100928.53;;;14.62;70.65
30730;BME280;17476;48.458;7.928;2023-10-08T07:54:24;100917.69;;;14.73;70.75
30730;BME280;17476;48.458;7.928;2023-10-08T07:56:51;100919.91;;;15.09;70.00
30730;BME280;17476;48.458;7.928;2023-10-08T07:59:38;100920.41;;;15.13;67.99
30730;BME280;17476;48.458;7.928;2023-10-08T08:02:08;100925.66;;;15.21;68.00
30730;BME280;17476;48.458;7.928;2023-10-08T08:04:38;100933.53;;;15.29;68.16
30730;BME280;17476;48.458;7.928;2023-10-08T08:07:06;100934.94;;;15.48;67.37
30730;BME280;17476;48.458;7.928;2023-10-08T08:09:33;100938.03;;;15.68;67.58
30730;BME280;17476;48.458;7.928;2023-10-08T08:12:05;100940.66;;;15.60;66.68
30730;BME280;17476;48.458;7.928;2023-10-08T08:14:37;100945.63;;;15.54;67.52
30730;BME280;17476;48.458;7.928;2023-10-08T08:17:07;100952.72;;;15.62;67.19
30730;BME280;17476;48.458;7.928;2023-10-08T08:19:46;100942.59;;;15.74;66.50
30730;BME280;17476;48.458;7.928;2023-10-08T08:22:18;100947.50;;;15.85;66.95
30730;BME280;17476;48.458;7.928;2023-10-08T08:24:52;100945.94;;;15.99;67.84
30730;BME280;17476;48.458;7.928;2023-10-08T08:27:28;100942.56;;;16.13;65.59
30730;BME280;17476;48.458;7.928;2023-10-08T08:30:01;100940.38;;;16.17;66.02
30730;BME280;17476;48.458;7.928;2023-10-08T08:32:39;100943.50;;;16.20;65.78
30730;BME280;17476;48.458;7.928;2023-10-08T08:35:07;100952.75;;;16.39;65.59
30730;BME280;17476;48.458;7.928;2023-10-08T08:37:33;100949.41;;;16.68;64.86
30730;BME280;17476;48.458;7.928;2023-10-08T08:40:02;100955.38;;;17.00;64.94
30730;BME280;17476;48.458;7.928;2023-10-08T08:42:35;100962.44;;;17.22;61.80
30730;BME280;17476;48.458;7.928;2023-10-08T08:45:06;100967.34;;;17.25;60.82
30730;BME280;17476;48.458;7.928;2023-10-08T08:47:37;100967.91;;;17.35;62.01
30730;BME280;17476;48.458;7.928;2023-10-08T08:50:08;100968.91;;;17.49;61.10
30730;BME280;17476;48.458;7.928;2023-10-08T08:52:39;100968.91;;;17.79;60.45
30730;BME280;17476;48.458;7.928;2023-10-08T08:55:06;100977.31;;;17.82;61.16
30730;BME280;17476;48.458;7.928;2023-10-08T08:57:42;100976.75;;;18.23;61.46
30730;BME280;17476;48.458;7.928;2023-10-08T09:00:16;100972.28;;;18.23;61.96
30730;BME280;17476;48.458;7.928;2023-10-08T09:02:43;100982.94;;;18.51;61.77
30730;BME280;17476;48.458;7.928;2023-10-08T09:05:10;100983.88;;;18.44;58.81
30730;BME280;17476;48.458;7.928;2023-10-08T09:08:02;100983.00;;;18.58;60.25
30730;BME280;17476;48.458;7.928;2023-10-08T09:10:31;100986.19;;;18.53;59.89
30730;BME280;17476;48.458;7.928;2023-10-08T09:13:06;100983.34;;;18.55;59.44
30730;BME280;17476;48.458;7.928;2023-10-08T09:15:35;100989.72;;;18.82;59.67
30730;BME280;17476;48.458;7.928;2023-10-08T09:18:02;100980.16;;;19.09;58.61
30730;BME280;17476;48.458;7.928;2023-10-08T09:20:36;100985.50;;;19.16;58.40
30730;BME280;17476;48.458;7.928;2023-10-08T09:23:09;100980.06;;;19.30;58.74
30730;BME280;17476;48.458;7.928;2023-10-08T09:25:42;100978.56;;;19.49;58.05
30730;BME280;17476;48.458;7.928;2023-10-08T09:28:09;100974.44;;;19.40;58.43
30730;BME280;17476;48.458;7.928;2023-10-08T09:30:39;100975.19;;;19.62;57.21
30730;BME280;17476;48.458;7.928;2023-10-08T09:33:11;100979.38;;;19.98;58.76
30730;BME280;17476;48.458;7.928;2023-10-08T09:35:43;100987.06;;;20.40;58.35
30730;BME280;17476;48.458;7.928;2023-10-08T09:38:11;100977.31;;;20.61;58.08
30730;BME280;17476;48.458;7.928;2023-10-08T09:40:47;100978.13;;;20.68;55.71
30730;BME280;17476;48.458;7.928;2023-10-08T09:43:15;100980.34;;;20.91;56.07
30730;BME280;17476;48.458;7.928;2023-10-08T09:45:55;100975.44;;;21.01;55.98
30730;BME280;17476;48.458;7.928;2023-10-08T09:48:25;100990.38;;;21.29;53.35
30730;BME280;17476;48.458;7.928;2023-10-08T09:50:52;100989.69;;;21.53;54.62
30730;BME280;17476;48.458;7.928;2023-10-08T09:53:32;100987.94;;;21.78;53.71
30730;BME280;17476;48.458;7.928;2023-10-08T09:56:14;100981.13;;;21.96;51.78
30730;BME280;17476;48.458;7.928;2023-10-08T09:58:41;100968.59;;;22.03;50.94
30730;BME280;17476;48.458;7.928;2023-10-08T10:01:08;100972.69;;;21.99;53.86
30730;BME280;17476;48.458;7.928;2023-10-08T10:03:35;100973.91;;;22.10;54.63
30730;BME280;17476;48.458;7.928;2023-10-08T10:06:02;100966.50;;;22.43;56.23
30730;BME280;17476;48.458;7.928;2023-10-08T10:08:28;100968.13;;;22.69;55.29
30730;BME280;17476;48.458;7.928;2023-10-08T10:11:01;100967.44;;;23.05;52.88
30730;BME280;17476;48.458;7.928;2023-10-08T10:13:39;100972.50;;;23.32;50.56
30730;BME280;17476;48.458;7.928;2023-10-08T10:16:05;100975.38;;;23.49;49.87
30730;BME280;17476;48.458;7.928;2023-10-08T10:18:33;100972.16;;;23.65;49.93
30730;BME280;17476;48.458;7.928;2023-10-08T10:23:48;100961.84;;;23.99;48.55
30730;BME280;17476;48.458;7.928;2023-10-08T10:26:25;100964.53;;;24.10;46.62
30730;BME280;17476;48.458;7.928;2023-10-08T10:31:58;100965.59;;;24.09;45.42
30730;BME280;17476;48.458;7.928;2023-10-08T10:34:26;100950.88;;;24.30;43.49
30730;BME280;17476;48.458;7.928;2023-10-08T10:36:58;100949.50;;;24.28;43.49
30730;BME280;17476;48.458;7.928;2023-10-08T10:39:26;100949.22;;;24.47;46.39
30730;BME280;17476;48.458;7.928;2023-10-08T10:42:00;100949.94;;;24.55;42.41
30730;BME280;17476;48.458;7.928;2023-10-08T10:44:33;100945.88;;;24.75;43.13
30730;BME280;17476;48.458;7.928;2023-10-08T10:47:03;100944.81;;;24.88;40.58
30730;BME280;17476;48.458;7.928;2023-10-08T10:49:42;100945.06;;;25.10;39.69
30730;BME280;17476;48.458;7.928;2023-10-08T10:52:35;100942.25;;;25.05;36.82
30730;BME280;17476;48.458;7.928;2023-10-08T10:55:12;100941.44;;;25.16;40.03
30730;BME280;17476;48.458;7.928;2023-10-08T10:57:46;100943.44;;;25.21;38.37
30730;BME280;17476;48.458;7.928;2023-10-08T11:00:20;100940.56;;;25.51;37.73
30730;BME280;17476;48.458;7.928;2023-10-08T11:03:00;100938.06;;;25.73;38.84
30730;BME280;17476;48.458;7.928;2023-10-08T11:05:37;100937.16;;;26.12;37.50
30730;BME280;17476;48.458;7.928;2023-10-08T11:08:06;100935.59;;;26.45;37.84
30730;BME280;17476;48.458;7.928;2023-10-08T11:10:37;100930.16;;;26.57;34.25
30730;BME280;17476;48.458;7.928;2023-10-08T11:13:06;100928.75;;;26.54;36.57
30730;BME280;17476;48.458;7.928;2023-10-08T11:15:42;100921.34;;;26.61;36.17
30730;BME280;17476;48.458;7.928;2023-10-08T11:18:09;100916.63;;;26.68;33.59
30730;BME280;17476;48.458;7.928;2023-10-08T11:20:36;100914.19;;;26.67;33.23
30730;BME280;17476;48.458;7.928;2023-10-08T11:23:06;100910.09;;;26.81;33.39
30730;BME280;17476;48.458;7.928;2023-10-08T11:28:19;100912.66;;;27.10;32.38
30730;BME280;17476;48.458;7.928;2023-10-08T11:30:45;100909.28;;;27.03;31.27
30730;BME280;17476;48.458;7.928;2023-10-08T11:33:12;100909.91;;;27.05;31.20
30730;BME280;17476;48.458;7.928;2023-10-08T11:35:58;100905.47;;;27.37;29.96
30730;BME280;17476;48.458;7.928;2023-10-08T11:38:25;100894.72;;;27.37;31.23
30730;BME280;17476;48.458;7.928;2023-10-08T11:40:50;100896.75;;;27.74;31.80
30730;BME280;17476;48.458;7.928;2023-10-08T11:43:23;100888.94;;;27.99;31.31
30730;BME280;17476;48.458;7.928;2023-10-08T11:45:49;100885.56;;;28.14;31.33
30730;BME280;17476;48.458;7.928;2023-10-08T11:48:15;100886.81;;;28.34;30.88
30730;BME280;17476;48.458;7.928;2023-10-08T11:50:52;100871.84;;;28.48;30.20
30730;BME280;17476;48.458;7.928;2023-10-08T11:53:17;100876.59;;;28.83;30.71
30730;BME280;17476;48.458;7.928;2023-10-08T11:55:44;100873.19;;;28.98;29.80
30730;BME280;17476;48.458;7.928;2023-10-08T11:58:14;100871.25;;;28.88;29.37
30730;BME280;17476;48.458;7.928;2023-10-08T12:00:46;100865.94;;;29.03;30.48
30730;BME280;17476;48.458;7.928;2023-10-08T12:03:15;100858.47;;;29.26;29.27
30730;BME280;17476;48.458;7.928;2023-10-08T12:05:45;100858.22;;;29.32;28.16
30730;BME280;17476;48.458;7.928;2023-10-08T12:08:19;100856.69;;;29.57;29.88
30730;BME280;17476;48.458;7.928;2023-10-08T12:10:46;100853.22;;;29.77;29.85
30730;BME280;17476;48.458;7.928;2023-10-08T12:13:14;100845.38;;;29.85;29.18
30730;BME280;17476;48.458;7.928;2023-10-08T12:15:44;100845.94;;;29.92;29.36
30730;BME280;17476;48.458;7.928;2023-10-08T12:18:10;100847.81;;;30.02;28.16
30730;BME280;17476;48.458;7.928;2023-10-08T12:20:52;100839.72;;;29.67;29.37
30730;BME280;17476;48.458;7.928;2023-10-08T12:23:19;100835.41;;;29.55;30.95
30730;BME280;17476;48.458;7.928;2023-10-08T12:25:53;100840.00;;;29.55;30.17
30730;BME280;17476;48.458;7.928;2023-10-08T12:28:22;100839.41;;;29.48;29.36
30730;BME280;17476;48.458;7.928;2023-10-08T12:30:49;100832.97;;;29.64;31.14
30730;BME280;17476;48.458;7.928;2023-10-08T12:33:19;100828.13;;;29.81;30.40
30730;BME280;17476;48.458;7.928;2023-10-08T12:35:46;100834.88;;;30.30;31.98
30730;BME280;17476;48.458;7.928;2023-10-08T12:38:13;100830.75;;;30.63;31.54
30730;BME280;17476;48.458;7.928;2023-10-08T12:40:40;100830.34;;;30.95;30.31
30730;BME280;17476;48.458;7.928;2023-10-08T12:43:20;100822.69;;;31.17;30.86
30730;BME280;17476;48.458;7.928;2023-10-08T12:45:50;100824.84;;;31.15;28.33
30730;BME280;17476;48.458;7.928;2023-10-08T12:48:27;100831.03;;;31.26;28.41
30730;BME280;17476;48.458;7.928;2023-10-08T12:50:54;100826.06;;;31.43;29.41
30730;BME280;17476;48.458;7.928;2023-10-08T12:53:25;100824.06;;;31.59;27.02
30730;BME280;17476;48.458;7.928;2023-10-08T12:56:09;100825.69;;;31.94;28.16
30730;BME280;17476;48.458;7.928;2023-10-08T12:58:42;100818.56;;;32.32;30.11
30730;BME280;17476;48.458;7.928;2023-10-08T13:01:16;100808.72;;;32.66;28.42
30730;BME280;17476;48.458;7.928;2023-10-08T13:03:44;100802.19;;;33.09;28.20
30730;BME280;17476;48.458;7.928;2023-10-08T13:06:18;100809.44;;;32.95;25.76
30730;BME280;17476;48.458;7.928;2023-10-08T13:08:57;100809.53;;;33.09;27.22
30730;BME280;17476;48.458;7.928;2023-10-08T13:11:26;100808.88;;;33.55;25.49
30730;BME280;17476;48.458;7.928;2023-10-08T13:13:54;100812.19;;;34.72;25.36
30730;BME280;17476;48.458;7.928;2023-10-08T13:16:27;100804.13;;;36.86;23.46
30730;BME280;17476;48.458;7.928;2023-10-08T13:18:57;100806.88;;;38.78;21.54
30730;BME280;17476;48.458;7.928;2023-10-08T13:21:27;100795.59;;;39.76;20.20
30730;BME280;17476;48.458;7.928;2023-10-08T13:23:57;100794.53;;;40.14;18.48